sensor_id;sensor_type;location;lat;lon;timestamp;temperature;humidity
37530;DHT22;23374;52.758;6.872;2022-09-29T00:02:11;8.70;1.00
37530;DHT22;23374;52.758;6.872;2022-09-29T00:04:31;8.70;1.00
37530;DHT22;23374;52.758;6.872;2022-09-29T00:06:52;8.70;1.00
37530;DHT22;23374;52.758;6.872;2022-09-29T00:09:12;8.80;1.00
37530;DHT22;23374;52.758;6.872;2022-09-29T00:11:32;8.80;1.00
37530;DHT22;23374;52.758;6.872;2022-09-29T00:13:53;8.80;1.00
37530;DHT22;23374;52.758;6.872;2022-09-29T00:16:14;8.80;1.00
37530;DHT22;23374;52.758;6.872;2022-09-29T00:18:35;8.80;13.50
37530;DHT22;23374;52.758;6.872;2022-09-29T00:21:06;8.80;24.80
37530;DHT22;23374;52.758;6.872;2022-09-29T00:23:27;8.70;21.60
37530;DHT22;23374;52.758;6.872;2022-09-29T00:25:48;8.70;10.20
37530;DHT22;23374;52.758;6.872;2022-09-29T00:28:17;8.60;6.80
37530;DHT22;23374;52.758;6.872;2022-09-29T00:30:37;8.60;18.00
37530;DHT22;23374;52.758;6.872;2022-09-29T00:32:57;8.60;13.80
37530;DHT22;23374;52.758;6.872;2022-09-29T00:35:17;8.60;14.10
37530;DHT22;23374;52.758;6.872;2022-09-29T00:37:38;8.50;15.50
37530;DHT22;23374;52.758;6.872;2022-09-29T00:39:59;8.50;26.40
37530;DHT22;23374;52.758;6.872;2022-09-29T00:42:21;8.50;32.70
37530;DHT22;23374;52.758;6.872;2022-09-29T00:48:16;8.50;40.70
37530;DHT22;23374;52.758;6.872;2022-09-29T00:50:49;8.50;47.90
37530;DHT22;23374;52.758;6.872;2022-09-29T00:53:11;8.40;25.80
37530;DHT22;23374;52.758;6.872;2022-09-29T00:55:37;8.40;24.30
37530;DHT22;23374;52.758;6.872;2022-09-29T00:58:10;8.40;30.00
37530;DHT22;23374;52.758;6.872;2022-09-29T01:00:32;8.30;9.20
37530;DHT22;23374;52.758;6.872;2022-09-29T01:03:12;8.30;15.00
37530;DHT22;23374;52.758;6.872;2022-09-29T01:05:39;8.30;11.30
37530;DHT22;23374;52.758;6.872;2022-09-29T01:08:12;8.20;1.00
37530;DHT22;23374;52.758;6.872;2022-09-29T01:10:36;8.20;1.00
37530;DHT22;23374;52.758;6.872;2022-09-29T01:12:57;8.20;1.00
37530;DHT22;23374;52.758;6.872;2022-09-29T01:15:19;8.20;1.00
37530;DHT22;23374;52.758;6.872;2022-09-29T01:17:41;8.20;1.00
37530;DHT22;23374;52.758;6.872;2022-09-29T01:20:13;8.10;1.00
37530;DHT22;23374;52.758;6.872;2022-09-29T01:24:23;8.10;1.00
37530;DHT22;23374;52.758;6.872;2022-09-29T01:37:42;7.90;1.00
37530;DHT22;23374;52.758;6.872;2022-09-29T01:40:36;7.90;1.00
37530;DHT22;23374;52.758;6.872;2022-09-29T01:45:25;7.90;1.00
37530;DHT22;23374;52.758;6.872;2022-09-29T01:47:54;7.80;1.00
37530;DHT22;23374;52.758;6.872;2022-09-29T01:50:21;7.80;1.00
37530;DHT22;23374;52.758;6.872;2022-09-29T01:52:50;7.80;1.00
37530;DHT22;23374;52.758;6.872;2022-09-29T01:55:19;7.80;1.00
37530;DHT22;23374;52.758;6.872;2022-09-29T01:57:57;7.80;1.00
37530;DHT22;23374;52.758;6.872;2022-09-29T02:00:20;7.80;1.00
37530;DHT22;23374;52.758;6.872;2022-09-29T02:03:00;7.80;1.00
37530;DHT22;23374;52.758;6.872;2022-09-29T02:05:54;7.70;1.00
37530;DHT22;23374;52.758;6.872;2022-09-29T02:08:45;7.70;1.00
37530;DHT22;23374;52.758;6.872;2022-09-29T02:11:09;7.80;1.00
37530;DHT22;23374;52.758;6.872;2022-09-29T02:13:46;7.80;1.00
37530;DHT22;23374;52.758;6.872;2022-09-29T02:16:17;7.80;1.00
37530;DHT22;23374;52.758;6.872;2022-09-29T02:18:54;7.70;1.00
37530;DHT22;23374;52.758;6.872;2022-09-29T02:21:16;7.70;1.00
37530;DHT22;23374;52.758;6.872;2022-09-29T02:23:36;7.70;1.00
37530;DHT22;23374;52.758;6.872;2022-09-29T02:25:57;7.60;1.00
37530;DHT22;23374;52.758;6.872;2022-09-29T02:28:19;7.60;1.00
37530;DHT22;23374;52.758;6.872;2022-09-29T02:30:39;7.60;1.00
37530;DHT22;23374;52.758;6.872;2022-09-29T02:33:00;7.60;12.30
37530;DHT22;23374;52.758;6.872;2022-09-29T02:35:20;7.70;13.30
37530;DHT22;23374;52.758;6.872;2022-09-29T02:38:04;7.60;13.10
37530;DHT22;23374;52.758;6.872;2022-09-29T02:40:56;7.60;15.00
37530;DHT22;23374;52.758;6.872;2022-09-29T02:46:23;7.70;1.00
37530;DHT22;23374;52.758;6.872;2022-09-29T02:49:25;7.60;6.20
37530;DHT22;23374;52.758;6.872;2022-09-29T02:57:59;7.70;33.10
37530;DHT22;23374;52.758;6.872;2022-09-29T03:00:21;7.70;59.20
37530;DHT22;23374;52.758;6.872;2022-09-29T03:02:43;7.70;63.90
37530;DHT22;23374;52.758;6.872;2022-09-29T03:05:21;7.70;69.50
37530;DHT22;23374;52.758;6.872;2022-09-29T03:07:42;7.70;49.00
37530;DHT22;23374;52.758;6.872;2022-09-29T03:10:04;7.70;43.50
37530;DHT22;23374;52.758;6.872;2022-09-29T03:12:25;7.60;57.90
37530;DHT22;23374;52.758;6.872;2022-09-29T03:14:45;7.60;94.30
37530;DHT22;23374;52.758;6.872;2022-09-29T03:17:06;7.70;83.90
37530;DHT22;23374;52.758;6.872;2022-09-29T03:19:26;7.70;71.60
37530;DHT22;23374;52.758;6.872;2022-09-29T03:21:47;7.70;62.90
37530;DHT22;23374;52.758;6.872;2022-09-29T03:24:07;7.70;79.90
37530;DHT22;23374;52.758;6.872;2022-09-29T03:26:27;7.70;93.00
37530;DHT22;23374;52.758;6.872;2022-09-29T03:28:52;7.80;83.00
37530;DHT22;23374;52.758;6.872;2022-09-29T03:31:13;7.80;73.60
37530;DHT22;23374;52.758;6.872;2022-09-29T03:33:34;7.70;80.70
37530;DHT22;23374;52.758;6.872;2022-09-29T03:35:55;7.70;74.90
37530;DHT22;23374;52.758;6.872;2022-09-29T03:38:16;7.80;81.40
37530;DHT22;23374;52.758;6.872;2022-09-29T03:40:36;7.80;87.20
37530;DHT22;23374;52.758;6.872;2022-09-29T03:42:56;7.80;95.10
37530;DHT22;23374;52.758;6.872;2022-09-29T03:45:17;7.80;94.30
37530;DHT22;23374;52.758;6.872;2022-09-29T03:47:37;7.80;96.40
37530;DHT22;23374;52.758;6.872;2022-09-29T03:49:58;7.70;98.50
37530;DHT22;23374;52.758;6.872;2022-09-29T03:52:18;7.70;99.90
37530;DHT22;23374;52.758;6.872;2022-09-29T03:54:39;7.70;99.90
37530;DHT22;23374;52.758;6.872;2022-09-29T03:57:00;7.70;99.90
37530;DHT22;23374;52.758;6.872;2022-09-29T03:59:20;7.80;99.90
37530;DHT22;23374;52.758;6.872;2022-09-29T04:01:41;7.80;99.90
37530;DHT22;23374;52.758;6.872;2022-09-29T04:04:01;7.80;99.90
37530;DHT22;23374;52.758;6.872;2022-09-29T04:06:22;7.80;99.90
37530;DHT22;23374;52.758;6.872;2022-09-29T04:08:43;7.80;99.90
37530;DHT22;23374;52.758;6.872;2022-09-29T04:11:04;7.70;99.90
37530;DHT22;23374;52.758;6.872;2022-09-29T04:13:25;7.70;99.90
37530;DHT22;23374;52.758;6.872;2022-09-29T04:15:45;7.70;99.90
37530;DHT22;23374;52.758;6.872;2022-09-29T04:18:05;7.70;99.90
37530;DHT22;23374;52.758;6.872;2022-09-29T04:20:26;7.70;99.90
37530;DHT22;23374;52.758;6.872;2022-09-29T04:22:46;7.60;99.90
37530;DHT22;23374;52.758;6.872;2022-09-29T04:25:09;7.60;99.90
37530;DHT22;23374;52.758;6.872;2022-09-29T04:27:29;7.60;99.90
37530;DHT22;23374;52.758;6.872;2022-09-29T04:29:49;7.50;99.90
37530;DHT22;23374;52.758;6.872;2022-09-29T04:32:10;7.50;99.90
37530;DHT22;23374;52.758;6.872;2022-09-29T04:34:31;7.50;99.90
37530;DHT22;23374;52.758;6.872;2022-09-29T04:36:52;7.50;99.90
37530;DHT22;23374;52.758;6.872;2022-09-29T04:39:13;7.50;99.90
37530;DHT22;23374;52.758;6.872;2022-09-29T04:41:33;7.50;99.90
37530;DHT22;23374;52.758;6.872;2022-09-29T04:43:56;7.50;99.90
37530;DHT22;23374;52.758;6.872;2022-09-29T04:46:16;7.50;99.90
37530;DHT22;23374;52.758;6.872;2022-09-29T04:48:36;7.40;99.90
37530;DHT22;23374;52.758;6.872;2022-09-29T04:50:57;7.40;94.80
37530;DHT22;23374;52.758;6.872;2022-09-29T04:53:17;7.40;99.90
37530;DHT22;23374;52.758;6.872;2022-09-29T04:55:38;7.40;99.90
37530;DHT22;23374;52.758;6.872;2022-09-29T04:57:59;7.30;99.90
37530;DHT22;23374;52.758;6.872;2022-09-29T05:00:19;7.30;95.30
37530;DHT22;23374;52.758;6.872;2022-09-29T05:02:40;7.30;52.40
37530;DHT22;23374;52.758;6.872;2022-09-29T05:05:01;7.30;65.90
37530;DHT22;23374;52.758;6.872;2022-09-29T05:07:21;7.30;82.00
37530;DHT22;23374;52.758;6.872;2022-09-29T05:09:42;7.30;90.30
37530;DHT22;23374;52.758;6.872;2022-09-29T05:12:02;7.30;62.50
37530;DHT22;23374;52.758;6.872;2022-09-29T05:14:22;7.30;37.70
37530;DHT22;23374;52.758;6.872;2022-09-29T05:16:43;7.20;39.90
37530;DHT22;23374;52.758;6.872;2022-09-29T05:19:03;7.20;45.60
37530;DHT22;23374;52.758;6.872;2022-09-29T05:21:24;7.20;51.80
37530;DHT22;23374;52.758;6.872;2022-09-29T05:23:44;7.10;62.40
37530;DHT22;23374;52.758;6.872;2022-09-29T05:26:06;7.10;66.90
37530;DHT22;23374;52.758;6.872;2022-09-29T05:28:28;7.00;85.30
37530;DHT22;23374;52.758;6.872;2022-09-29T05:30:48;7.00;91.30
37530;DHT22;23374;52.758;6.872;2022-09-29T05:33:09;7.00;77.90
37530;DHT22;23374;52.758;6.872;2022-09-29T05:35:29;7.00;95.20
37530;DHT22;23374;52.758;6.872;2022-09-29T05:37:50;7.00;93.50
37530;DHT22;23374;52.758;6.872;2022-09-29T05:40:10;7.00;99.90
37530;DHT22;23374;52.758;6.872;2022-09-29T05:42:31;7.00;93.40
37530;DHT22;23374;52.758;6.872;2022-09-29T05:44:51;7.00;95.50
37530;DHT22;23374;52.758;6.872;2022-09-29T05:47:12;7.00;99.90
37530;DHT22;23374;52.758;6.872;2022-09-29T05:49:32;7.00;99.90
37530;DHT22;23374;52.758;6.872;2022-09-29T05:51:52;7.00;97.20
37530;DHT22;23374;52.758;6.872;2022-09-29T05:54:12;7.00;99.90
37530;DHT22;23374;52.758;6.872;2022-09-29T05:56:33;7.00;99.90
37530;DHT22;23374;52.758;6.872;2022-09-29T05:58:54;7.00;99.90
37530;DHT22;23374;52.758;6.872;2022-09-29T06:01:23;7.00;99.90
37530;DHT22;23374;52.758;6.872;2022-09-29T06:03:44;7.10;99.90
37530;DHT22;23374;52.758;6.872;2022-09-29T06:06:11;7.10;99.90
37530;DHT22;23374;52.758;6.872;2022-09-29T06:08:32;7.10;99.90
37530;DHT22;23374;52.758;6.872;2022-09-29T06:10:53;7.10;99.90
37530;DHT22;23374;52.758;6.872;2022-09-29T06:13:13;7.10;99.90
37530;DHT22;23374;52.758;6.872;2022-09-29T06:15:33;7.10;99.90
37530;DHT22;23374;52.758;6.872;2022-09-29T06:17:57;7.20;99.90
37530;DHT22;23374;52.758;6.872;2022-09-29T06:20:18;7.20;99.90
37530;DHT22;23374;52.758;6.872;2022-09-29T06:22:38;7.20;99.90
37530;DHT22;23374;52.758;6.872;2022-09-29T06:24:58;7.20;99.90
37530;DHT22;23374;52.758;6.872;2022-09-29T06:27:18;7.30;99.90
37530;DHT22;23374;52.758;6.872;2022-09-29T06:29:39;7.30;99.90
37530;DHT22;23374;52.758;6.872;2022-09-29T06:32:00;7.40;99.90
37530;DHT22;23374;52.758;6.872;2022-09-29T06:34:20;7.40;99.90
37530;DHT22;23374;52.758;6.872;2022-09-29T06:36:42;7.50;99.90
37530;DHT22;23374;52.758;6.872;2022-09-29T06:39:22;7.50;99.90
37530;DHT22;23374;52.758;6.872;2022-09-29T06:41:43;7.50;99.90
37530;DHT22;23374;52.758;6.872;2022-09-29T06:44:07;7.50;99.90
37530;DHT22;23374;52.758;6.872;2022-09-29T06:46:28;7.60;99.90
37530;DHT22;23374;52.758;6.872;2022-09-29T06:48:48;7.60;99.90
37530;DHT22;23374;52.758;6.872;2022-09-29T06:51:08;7.50;99.90
37530;DHT22;23374;52.758;6.872;2022-09-29T06:53:28;7.50;99.90
37530;DHT22;23374;52.758;6.872;2022-09-29T06:55:53;7.60;99.90
37530;DHT22;23374;52.758;6.872;2022-09-29T06:58:15;7.60;99.90
37530;DHT22;23374;52.758;6.872;2022-09-29T07:00:36;7.60;99.90
37530;DHT22;23374;52.758;6.872;2022-09-29T07:02:57;7.60;99.90
37530;DHT22;23374;52.758;6.872;2022-09-29T07:05:17;7.60;99.90
37530;DHT22;23374;52.758;6.872;2022-09-29T07:07:37;7.70;99.90
37530;DHT22;23374;52.758;6.872;2022-09-29T07:09:58;7.70;99.90
37530;DHT22;23374;52.758;6.872;2022-09-29T07:12:18;7.70;99.90
37530;DHT22;23374;52.758;6.872;2022-09-29T07:14:38;7.70;99.90
37530;DHT22;23374;52.758;6.872;2022-09-29T07:16:59;7.70;99.90
37530;DHT22;23374;52.758;6.872;2022-09-29T07:19:19;7.70;99.90
37530;DHT22;23374;52.758;6.872;2022-09-29T07:21:41;7.70;99.90
37530;DHT22;23374;52.758;6.872;2022-09-29T07:24:01;7.70;99.90
37530;DHT22;23374;52.758;6.872;2022-09-29T07:26:22;7.80;99.90
37530;DHT22;23374;52.758;6.872;2022-09-29T07:28:45;7.80;99.90
37530;DHT22;23374;52.758;6.872;2022-09-29T07:31:10;7.70;99.90
37530;DHT22;23374;52.758;6.872;2022-09-29T07:33:32;7.80;99.90
37530;DHT22;23374;52.758;6.872;2022-09-29T07:35:53;7.70;99.90
37530;DHT22;23374;52.758;6.872;2022-09-29T07:38:14;7.70;99.90
37530;DHT22;23374;52.758;6.872;2022-09-29T07:40:34;7.80;99.90
37530;DHT22;23374;52.758;6.872;2022-09-29T07:42:54;7.80;99.90
37530;DHT22;23374;52.758;6.872;2022-09-29T07:45:16;7.90;99.90
37530;DHT22;23374;52.758;6.872;2022-09-29T07:47:37;8.00;99.90
37530;DHT22;23374;52.758;6.872;2022-09-29T07:49:57;8.10;99.90
37530;DHT22;23374;52.758;6.872;2022-09-29T07:52:17;8.10;99.90
37530;DHT22;23374;52.758;6.872;2022-09-29T07:54:38;8.20;99.90
37530;DHT22;23374;52.758;6.872;2022-09-29T07:56:58;8.20;99.90
37530;DHT22;23374;52.758;6.872;2022-09-29T07:59:20;8.30;99.90
37530;DHT22;23374;52.758;6.872;2022-09-29T08:01:41;8.30;99.90
37530;DHT22;23374;52.758;6.872;2022-09-29T08:04:01;8.40;99.90
37530;DHT22;23374;52.758;6.872;2022-09-29T08:06:24;8.30;99.90
37530;DHT22;23374;52.758;6.872;2022-09-29T08:08:44;8.30;99.90
37530;DHT22;23374;52.758;6.872;2022-09-29T08:11:08;8.30;99.90
37530;DHT22;23374;52.758;6.872;2022-09-29T08:13:29;8.30;99.90
37530;DHT22;23374;52.758;6.872;2022-09-29T08:15:57;8.30;99.90
37530;DHT22;23374;52.758;6.872;2022-09-29T08:18:18;8.40;99.90
37530;DHT22;23374;52.758;6.872;2022-09-29T08:20:38;8.40;99.90
37530;DHT22;23374;52.758;6.872;2022-09-29T08:22:59;8.50;99.90
37530;DHT22;23374;52.758;6.872;2022-09-29T08:25:19;8.50;99.90
37530;DHT22;23374;52.758;6.872;2022-09-29T08:27:39;8.60;99.90
37530;DHT22;23374;52.758;6.872;2022-09-29T08:30:00;8.60;99.90
37530;DHT22;23374;52.758;6.872;2022-09-29T08:32:20;8.70;99.90
37530;DHT22;23374;52.758;6.872;2022-09-29T08:34:41;8.80;99.90
37530;DHT22;23374;52.758;6.872;2022-09-29T08:37:02;8.80;99.90
37530;DHT22;23374;52.758;6.872;2022-09-29T08:39:22;8.90;99.90
37530;DHT22;23374;52.758;6.872;2022-09-29T08:42:04;8.90;99.90
37530;DHT22;23374;52.758;6.872;2022-09-29T08:45:28;9.00;99.90
37530;DHT22;23374;52.758;6.872;2022-09-29T08:47:50;9.10;99.90
37530;DHT22;23374;52.758;6.872;2022-09-29T08:50:35;9.10;99.90
37530;DHT22;23374;52.758;6.872;2022-09-29T08:53:04;9.20;99.90
37530;DHT22;23374;52.758;6.872;2022-09-29T08:58:21;9.40;99.90
37530;DHT22;23374;52.758;6.872;2022-09-29T09:04:39;9.50;99.90
37530;DHT22;23374;52.758;6.872;2022-09-29T09:07:17;9.70;99.90
37530;DHT22;23374;52.758;6.872;2022-09-29T09:18:09;9.80;99.90
37530;DHT22;23374;52.758;6.872;2022-09-29T09:26:08;9.90;99.90
37530;DHT22;23374;52.758;6.872;2022-09-29T09:28:56;10.00;99.90
37530;DHT22;23374;52.758;6.872;2022-09-29T09:31:38;10.00;99.90
37530;DHT22;23374;52.758;6.872;2022-09-29T09:34:28;10.10;99.90
37530;DHT22;23374;52.758;6.872;2022-09-29T09:37:03;10.10;99.90
37530;DHT22;23374;52.758;6.872;2022-09-29T09:39:31;10.20;99.90
37530;DHT22;23374;52.758;6.872;2022-09-29T09:41:56;10.30;99.90
37530;DHT22;23374;52.758;6.872;2022-09-29T09:44:39;10.30;99.90
37530;DHT22;23374;52.758;6.872;2022-09-29T09:48:12;10.40;99.90
37530;DHT22;23374;52.758;6.872;2022-09-29T09:50:35;10.40;99.90
37530;DHT22;23374;52.758;6.872;2022-09-29T09:53:13;10.50;99.90
37530;DHT22;23374;52.758;6.872;2022-09-29T09:55:40;10.60;99.90
37530;DHT22;23374;52.758;6.872;2022-09-29T10:00:26;10.60;99.90
37530;DHT22;23374;52.758;6.872;2022-09-29T10:02:51;10.60;99.90
37530;DHT22;23374;52.758;6.872;2022-09-29T10:05:19;10.60;99.90
37530;DHT22;23374;52.758;6.872;2022-09-29T10:07:40;10.60;99.90
37530;DHT22;23374;52.758;6.872;2022-09-29T10:10:04;10.70;99.90
37530;DHT22;23374;52.758;6.872;2022-09-29T10:12:32;10.80;99.90
37530;DHT22;23374;52.758;6.872;2022-09-29T10:15:24;10.90;99.90
37530;DHT22;23374;52.758;6.872;2022-09-29T10:18:05;10.90;99.90
37530;DHT22;23374;52.758;6.872;2022-09-29T10:20:37;11.00;99.90
37530;DHT22;23374;52.758;6.872;2022-09-29T10:26:43;11.00;99.90
37530;DHT22;23374;52.758;6.872;2022-09-29T10:29:33;11.20;99.90
37530;DHT22;23374;52.758;6.872;2022-09-29T10:32:13;11.20;99.90
37530;DHT22;23374;52.758;6.872;2022-09-29T10:34:39;11.30;99.90
37530;DHT22;23374;52.758;6.872;2022-09-29T10:37:06;11.40;99.90
37530;DHT22;23374;52.758;6.872;2022-09-29T10:39:43;11.40;99.90
37530;DHT22;23374;52.758;6.872;2022-09-29T10:43:21;11.50;99.90
37530;DHT22;23374;52.758;6.872;2022-09-29T10:45:47;11.50;99.90
37530;DHT22;23374;52.758;6.872;2022-09-29T10:48:13;11.60;99.90
37530;DHT22;23374;52.758;6.872;2022-09-29T10:50:47;11.70;99.90
37530;DHT22;23374;52.758;6.872;2022-09-29T10:53:42;11.80;99.90
37530;DHT22;23374;52.758;6.872;2022-09-29T10:56:18;11.90;99.90
37530;DHT22;23374;52.758;6.872;2022-09-29T10:58:42;12.00;99.90
37530;DHT22;23374;52.758;6.872;2022-09-29T11:01:16;12.10;92.90
37530;DHT22;23374;52.758;6.872;2022-09-29T11:03:59;12.20;11.90
37530;DHT22;23374;52.758;6.872;2022-09-29T11:06:32;12.20;1.00
37530;DHT22;23374;52.758;6.872;2022-09-29T11:09:40;12.20;1.00
37530;DHT22;23374;52.758;6.872;2022-09-29T11:12:01;12.30;1.00
37530;DHT22;23374;52.758;6.872;2022-09-29T11:14:44;12.30;1.00
37530;DHT22;23374;52.758;6.872;2022-09-29T11:18:37;12.40;1.00
37530;DHT22;23374;52.758;6.872;2022-09-29T11:33:47;12.70;1.00
37530;DHT22;23374;52.758;6.872;2022-09-29T11:38:35;12.80;1.00
37530;DHT22;23374;52.758;6.872;2022-09-29T11:41:50;12.80;1.00
37530;DHT22;23374;52.758;6.872;2022-09-29T11:48:21;12.90;1.00
37530;DHT22;23374;52.758;6.872;2022-09-29T11:55:29;13.00;1.00
37530;DHT22;23374;52.758;6.872;2022-09-29T12:04:51;13.10;1.00
37530;DHT22;23374;52.758;6.872;2022-09-29T12:14:27;13.30;99.90
37530;DHT22;23374;52.758;6.872;2022-09-29T12:17:03;13.40;1.00
37530;DHT22;23374;52.758;6.872;2022-09-29T12:19:29;13.50;1.00
37530;DHT22;23374;52.758;6.872;2022-09-29T12:21:52;13.50;1.00
37530;DHT22;23374;52.758;6.872;2022-09-29T12:24:52;13.50;99.90
37530;DHT22;23374;52.758;6.872;2022-09-29T12:27:34;13.60;1.00
37530;DHT22;23374;52.758;6.872;2022-09-29T12:30:29;13.70;99.90
37530;DHT22;23374;52.758;6.872;2022-09-29T12:34:50;13.70;99.90
37530;DHT22;23374;52.758;6.872;2022-09-29T12:46:19;13.80;99.90
37530;DHT22;23374;52.758;6.872;2022-09-29T12:49:25;14.10;1.00
37530;DHT22;23374;52.758;6.872;2022-09-29T12:51:50;14.10;8.60
37530;DHT22;23374;52.758;6.872;2022-09-29T12:54:58;14.20;99.90
37530;DHT22;23374;52.758;6.872;2022-09-29T12:57:33;14.20;1.00
37530;DHT22;23374;52.758;6.872;2022-09-29T13:00:05;14.20;99.90
37530;DHT22;23374;52.758;6.872;2022-09-29T13:08:43;14.30;1.00
37530;DHT22;23374;52.758;6.872;2022-09-29T13:11:51;14.50;99.90
37530;DHT22;23374;52.758;6.872;2022-09-29T13:15:06;14.60;1.00
37530;DHT22;23374;52.758;6.872;2022-09-29T13:21:03;14.60;99.90
37530;DHT22;23374;52.758;6.872;2022-09-29T13:25:21;14.60;1.00
37530;DHT22;23374;52.758;6.872;2022-09-29T13:27:44;14.70;1.00
37530;DHT22;23374;52.758;6.872;2022-09-29T13:30:20;14.70;47.60
37530;DHT22;23374;52.758;6.872;2022-09-29T13:37:16;14.80;1.00
37530;DHT22;23374;52.758;6.872;2022-09-29T13:39:40;14.80;1.00
37530;DHT22;23374;52.758;6.872;2022-09-29T13:43:00;14.80;1.00
37530;DHT22;23374;52.758;6.872;2022-09-29T13:45:45;14.90;99.90
37530;DHT22;23374;52.758;6.872;2022-09-29T13:48:50;14.90;1.00
37530;DHT22;23374;52.758;6.872;2022-09-29T13:55:50;15.00;1.00
37530;DHT22;23374;52.758;6.872;2022-09-29T13:58:25;15.10;1.00
37530;DHT22;23374;52.758;6.872;2022-09-29T14:00:46;15.10;1.00
37530;DHT22;23374;52.758;6.872;2022-09-29T14:03:39;15.20;99.90
37530;DHT22;23374;52.758;6.872;2022-09-29T14:06:21;15.20;1.00
37530;DHT22;23374;52.758;6.872;2022-09-29T14:09:12;15.40;1.00
37530;DHT22;23374;52.758;6.872;2022-09-29T14:11:43;15.50;1.00
37530;DHT22;23374;52.758;6.872;2022-09-29T14:14:23;15.50;99.90
37530;DHT22;23374;52.758;6.872;2022-09-29T14:17:45;15.60;99.90
37530;DHT22;23374;52.758;6.872;2022-09-29T14:20:18;15.60;83.20
37530;DHT22;23374;52.758;6.872;2022-09-29T14:23:47;15.60;99.90
37530;DHT22;23374;52.758;6.872;2022-09-29T14:26:47;15.60;99.90
37530;DHT22;23374;52.758;6.872;2022-09-29T14:29:20;15.70;99.90
37530;DHT22;23374;52.758;6.872;2022-09-29T14:31:46;15.80;99.90
37530;DHT22;23374;52.758;6.872;2022-09-29T14:34:11;15.90;99.90
37530;DHT22;23374;52.758;6.872;2022-09-29T14:36:34;15.90;1.00
37530;DHT22;23374;52.758;6.872;2022-09-29T14:38:55;16.00;99.90
37530;DHT22;23374;52.758;6.872;2022-09-29T14:41:30;16.00;80.30
37530;DHT22;23374;52.758;6.872;2022-09-29T14:44:01;16.10;1.00
37530;DHT22;23374;52.758;6.872;2022-09-29T14:47:15;16.10;93.80
37530;DHT22;23374;52.758;6.872;2022-09-29T14:50:48;16.10;1.00
37530;DHT22;23374;52.758;6.872;2022-09-29T14:53:45;16.30;1.00
37530;DHT22;23374;52.758;6.872;2022-09-29T14:58:38;16.30;1.00
37530;DHT22;23374;52.758;6.872;2022-09-29T15:01:30;16.30;99.90
37530;DHT22;23374;52.758;6.872;2022-09-29T15:03:52;16.30;99.90
37530;DHT22;23374;52.758;6.872;2022-09-29T15:06:26;16.40;94.90
37530;DHT22;23374;52.758;6.872;2022-09-29T15:09:23;16.40;99.90
37530;DHT22;23374;52.758;6.872;2022-09-29T15:11:53;16.40;1.00
37530;DHT22;23374;52.758;6.872;2022-09-29T15:14:33;16.50;1.00
37530;DHT22;23374;52.758;6.872;2022-09-29T15:17:55;16.60;1.00
37530;DHT22;23374;52.758;6.872;2022-09-29T15:21:20;16.60;1.00
37530;DHT22;23374;52.758;6.872;2022-09-29T15:24:20;16.60;99.90
37530;DHT22;23374;52.758;6.872;2022-09-29T15:26:46;16.60;24.20
37530;DHT22;23374;52.758;6.872;2022-09-29T15:29:09;16.60;1.00
37530;DHT22;23374;52.758;6.872;2022-09-29T15:31:33;16.60;1.00
37530;DHT22;23374;52.758;6.872;2022-09-29T15:33:56;16.60;1.00
37530;DHT22;23374;52.758;6.872;2022-09-29T15:36:25;16.60;1.00
37530;DHT22;23374;52.758;6.872;2022-09-29T15:39:22;16.70;99.90
37530;DHT22;23374;52.758;6.872;2022-09-29T15:42:08;16.60;99.90
37530;DHT22;23374;52.758;6.872;2022-09-29T15:44:34;16.60;60.60
37530;DHT22;23374;52.758;6.872;2022-09-29T15:46:57;16.60;1.00
37530;DHT22;23374;52.758;6.872;2022-09-29T15:49:26;16.60;1.00
37530;DHT22;23374;52.758;6.872;2022-09-29T15:52:03;16.60;1.00
37530;DHT22;23374;52.758;6.872;2022-09-29T15:54:36;16.50;1.00
37530;DHT22;23374;52.758;6.872;2022-09-29T15:57:00;16.50;99.90
37530;DHT22;23374;52.758;6.872;2022-09-29T15:59:54;16.50;99.90
37530;DHT22;23374;52.758;6.872;2022-09-29T16:02:37;16.50;99.90
37530;DHT22;23374;52.758;6.872;2022-09-29T16:05:10;16.40;99.90
37530;DHT22;23374;52.758;6.872;2022-09-29T16:07:35;16.40;1.00
37530;DHT22;23374;52.758;6.872;2022-09-29T16:10:05;16.30;99.90
37530;DHT22;23374;52.758;6.872;2022-09-29T16:12:32;16.30;72.10
37530;DHT22;23374;52.758;6.872;2022-09-29T16:14:56;16.30;99.90
37530;DHT22;23374;52.758;6.872;2022-09-29T16:17:17;16.20;99.90
37530;DHT22;23374;52.758;6.872;2022-09-29T16:19:43;16.00;99.90
37530;DHT22;23374;52.758;6.872;2022-09-29T16:22:05;15.90;1.00
37530;DHT22;23374;52.758;6.872;2022-09-29T16:24:34;15.70;1.00
37530;DHT22;23374;52.758;6.872;2022-09-29T16:26:56;15.50;99.90
37530;DHT22;23374;52.758;6.872;2022-09-29T16:29:39;15.30;99.90
37530;DHT22;23374;52.758;6.872;2022-09-29T16:32:35;15.20;90.90
37530;DHT22;23374;52.758;6.872;2022-09-29T16:36:16;15.10;1.00
37530;DHT22;23374;52.758;6.872;2022-09-29T16:38:44;14.90;1.00
37530;DHT22;23374;52.758;6.872;2022-09-29T16:44:41;14.90;1.00
37530;DHT22;23374;52.758;6.872;2022-09-29T16:47:29;14.70;99.90
37530;DHT22;23374;52.758;6.872;2022-09-29T16:49:57;14.60;1.00
37530;DHT22;23374;52.758;6.872;2022-09-29T16:53:00;14.60;99.90
37530;DHT22;23374;52.758;6.872;2022-09-29T16:55:29;14.50;99.90
37530;DHT22;23374;52.758;6.872;2022-09-29T16:58:08;14.40;99.90
37530;DHT22;23374;52.758;6.872;2022-09-29T17:00:29;14.30;1.00
37530;DHT22;23374;52.758;6.872;2022-09-29T17:02:53;14.30;1.00
37530;DHT22;23374;52.758;6.872;2022-09-29T17:05:14;14.20;1.00
37530;DHT22;23374;52.758;6.872;2022-09-29T17:07:39;14.10;1.00
37530;DHT22;23374;52.758;6.872;2022-09-29T17:10:03;14.10;1.00
37530;DHT22;23374;52.758;6.872;2022-09-29T17:12:28;14.00;99.90
37530;DHT22;23374;52.758;6.872;2022-09-29T17:14:49;14.00;99.90
37530;DHT22;23374;52.758;6.872;2022-09-29T17:17:20;13.90;99.90
37530;DHT22;23374;52.758;6.872;2022-09-29T17:19:41;13.90;1.00
37530;DHT22;23374;52.758;6.872;2022-09-29T17:22:01;13.90;1.00
37530;DHT22;23374;52.758;6.872;2022-09-29T17:24:21;13.80;1.00
37530;DHT22;23374;52.758;6.872;2022-09-29T17:26:44;13.80;1.00
37530;DHT22;23374;52.758;6.872;2022-09-29T17:29:24;13.80;1.00
37530;DHT22;23374;52.758;6.872;2022-09-29T17:31:44;13.80;1.00
37530;DHT22;23374;52.758;6.872;2022-09-29T17:34:05;13.80;1.00
37530;DHT22;23374;52.758;6.872;2022-09-29T17:36:26;13.70;1.00
37530;DHT22;23374;52.758;6.872;2022-09-29T17:38:47;13.70;1.00
37530;DHT22;23374;52.758;6.872;2022-09-29T17:41:10;13.70;1.00
37530;DHT22;23374;52.758;6.872;2022-09-29T17:43:35;13.70;1.00
37530;DHT22;23374;52.758;6.872;2022-09-29T17:45:56;13.70;1.00
37530;DHT22;23374;52.758;6.872;2022-09-29T17:48:17;13.70;1.00
37530;DHT22;23374;52.758;6.872;2022-09-29T17:50:51;13.70;1.00
37530;DHT22;23374;52.758;6.872;2022-09-29T17:53:15;13.70;1.00
37530;DHT22;23374;52.758;6.872;2022-09-29T17:55:36;13.70;99.90
37530;DHT22;23374;52.758;6.872;2022-09-29T17:57:57;13.70;99.90
37530;DHT22;23374;52.758;6.872;2022-09-29T18:00:36;13.70;99.90
37530;DHT22;23374;52.758;6.872;2022-09-29T18:02:57;13.70;1.00
37530;DHT22;23374;52.758;6.872;2022-09-29T18:05:18;13.70;1.00
37530;DHT22;23374;52.758;6.872;2022-09-29T18:07:43;13.60;99.90
37530;DHT22;23374;52.758;6.872;2022-09-29T18:10:22;13.60;1.00